Pagrindinis puslapis
METAR-TAF:

METAR-TAF

Oro uostai :

Tiruchirappalli, Indija

platuma: 10-46N, ilguma: 078-43E, Aukštis: 85 m

Dabartinis oras

Ataskaita buvo paskelbta 24 minutes, ne 06:00 UTC
Vėjas 4 kt iš Vakarų
Temperatūra 35°C
Drėgmė 53%
Slėgis 1007 hPa
Matomumas: 6000 m
Mažai debesys ne aukštis 1600 ft
Išsisklaidę debesys ne aukštis 10000 ft

METAR: VOTR 300600Z 27004KT 6000 FEW016 SCT100 35/24 Q1007 NOSIG

Laikas: 11:54 (06:24 UTC)

Prognozė

Ataskaita buvo paskelbta 1 valandą ir 24 minutes, ne 05:00 UTC
Prognozė galioja nuo 30 metu 06 UTC su 31 metu 12 UTC
Vėjas 10 kt iš Vakarų/Pietvakarių
Matomumas: 6000 m
Išsisklaidę debesys ne aukštis 1800 ft
Išsisklaidę debesys ne aukštis 10000 ft
Tapsmas
nuo 30 metu 10 UTC su 30 metu 11 UTC
Vėjas 10 kt iš Pietų
Laikinai
nuo 30 metu 11 UTC su 30 metu 15 UTC
Matomumas: 4000 m
Išsisklaidę debesys ne aukštis 1500 ft
Su prošvaistėmis ne aukštis 8000 ft

TAF: VOTR 300500Z 3006/3112 25010KT 6000 SCT018 SCT100 BECMG 3010/3011 19010KT TEMPO 3011/3015 4000 -TSRA/RA SCT015 FEW025TCU/CB BKN080

Orai ataskaitas ir orų prognozės (METAR, TAF).

turimą stotys yra geltonos ir raudonos taškus žemėlapyje.

Perkelti pele per norėdami pamatyti stoties vardą.

Tada spustelėkite, norėdami matyti oro stebėjimo ir prognozės.

Norėdami pakeisti žemėlapį: spustelėkite ant žalios mygtukų su juodo kryžiaus žemyn,; žalią mygtuką su brūkšneliu, jei norite nutolinti; arba žalių rodyklių gretimoms žemėlapius.


METAR-TAF: